Sunderland, MD

8:58 AM EST on January 26, 2015 (GMT -0500)
N3IDX Live Weather | Change Station
CLOSE
Current Station
Personal Weather Station
Location: Huntingtown, MD
Elevation: 116 ft
Nearby Weather Stations
Active Advisory: Winter Weather Advisory Active Notice: Public Information Statement

Elev 116 ft 38.64 °N, 76.62 °W | Updated 28 minutes ago

Overcast
Overcast
34.7 °F
Feels Like 35 °F
N
0.0
Wind Variable Wind from North
Gusts 0.0 mph

Today
High -- | Low -- °F
--% Chance of Precip.
Yesterday
High -- | Low -- °F
Precip. -- in
7:17 AM 5:21 PM
Waxing Crescent, 43% visible
Pressure 29.78 in
Visibility 9.0 miles
Clouds Overcast 500 ft
Windchill 35 °F
Dew Point 33 °F
Humidity 95%
Rainfall 0.00 in
Snow Depth Not available.
UV 0 out of 12
Pollen .30 out of 12
Air Quality Not available.
Flu Activity Not available.
SPECI KADW 261346Z 07010KT 9SM OVC005 00/00 A2978 RMK AO2A

More Conditions Fewer Conditions

Pressure 29.78 in
Visibility 9.0 miles
Clouds Overcast 500 ft
Windchill 35 °F
Dew Point 33 °F
Humidity 95%
Rainfall 0.00 in
Snow Depth Not available.
UV 0 out of 12
Pollen .30 out of 12
Air Quality Not available.
Flu Activity Not available.
SPECI KADW 261346Z 07010KT 9SM OVC005 00/00 A2978 RMK AO2A

More Conditions Fewer Conditions

10-Day Weather Forecast

Almanac

Astronomy

Jan. 26, 2015 Rise Set
Actual Time
Civil Twilight
Nautical Twilight
Astronomical Twilight
Moon
Length of Visible Light
Length of Day
Tomorrow will be .
, % of the Moon is Illuminated

Today's Extremes

State Highs State Lows

Community

WunderPhotos

Upload Photos

1,790,200 photos uploaded!

WunderBlogs® & News

Nearby

Air Quality

  Air Quality AQ Index Pollutant
Not available.

Snow Depth

Station Depth Elevation

Earthquake Activity

City Distance Mag. Time & Date
Minimum magnitude displayed is 2.5.

Coastal Water Temperatures

Place Temperature

Nearby Weather Stations